createdAt,value
2022-09-23T00:01:02.736Z,15.60
2022-09-23T00:03:31.395Z,15.77
2022-09-23T00:05:59.557Z,15.66
2022-09-23T00:08:26.223Z,15.64
2022-09-23T00:10:52.904Z,15.64
2022-09-23T00:13:19.568Z,15.62
2022-09-23T00:15:46.837Z,15.42
2022-09-23T00:18:13.712Z,15.61
2022-09-23T00:20:40.590Z,15.46
2022-09-23T00:23:07.221Z,15.63
2022-09-23T00:25:34.112Z,15.48
2022-09-23T00:28:00.718Z,15.33
2022-09-23T00:30:27.318Z,15.45
2022-09-23T00:32:53.994Z,15.51
2022-09-23T00:35:20.560Z,15.20
2022-09-23T00:37:47.061Z,15.30
2022-09-23T00:40:13.782Z,15.46
2022-09-23T00:42:52.132Z,15.50
2022-09-23T00:45:19.523Z,15.42
2022-09-23T00:47:48.272Z,15.07
2022-09-23T00:50:36.685Z,15.36
2022-09-23T00:53:07.865Z,15.38
2022-09-23T00:55:43.051Z,15.35
2022-09-23T00:58:15.627Z,15.45
2022-09-23T01:00:42.605Z,15.48
2022-09-23T01:03:09.565Z,15.45
2022-09-23T01:05:39.999Z,15.50
2022-09-23T01:08:09.142Z,15.44
2022-09-23T01:11:06.722Z,15.56
2022-09-23T01:14:13.662Z,15.41
2022-09-23T01:16:53.682Z,15.49
2022-09-23T01:19:39.215Z,15.45
2022-09-23T01:22:24.837Z,15.44
2022-09-23T01:25:17.083Z,15.33
2022-09-23T01:28:21.691Z,15.36
2022-09-23T01:31:02.142Z,15.24
2022-09-23T01:33:58.694Z,15.37
2022-09-23T01:36:45.656Z,15.22
2022-09-23T01:39:33.896Z,15.37
2022-09-23T01:42:07.367Z,15.27
2022-09-23T01:44:43.067Z,15.33
2022-09-23T01:47:50.325Z,15.49
2022-09-23T01:50:40.903Z,15.45
2022-09-23T01:53:15.291Z,15.44
2022-09-23T01:55:50.048Z,15.37
2022-09-23T01:58:26.296Z,15.37
2022-09-23T02:01:01.993Z,15.17
2022-09-23T02:03:47.283Z,15.33
2022-09-23T02:06:17.179Z,15.21
2022-09-23T02:08:52.800Z,14.97
2022-09-23T02:11:19.442Z,15.36
2022-09-23T02:14:22.541Z,15.27
2022-09-23T02:16:52.086Z,15.22
2022-09-23T02:19:40.791Z,15.24
2022-09-23T02:22:34.553Z,15.10
2022-09-23T02:25:01.243Z,15.13
2022-09-23T02:27:47.356Z,14.83
2022-09-23T02:30:22.631Z,15.07
2022-09-23T02:32:56.577Z,15.15
2022-09-23T02:35:26.243Z,15.07
2022-09-23T02:38:17.652Z,15.07
2022-09-23T02:40:54.000Z,14.71
2022-09-23T02:43:59.756Z,15.05
2022-09-23T02:46:27.719Z,14.48
2022-09-23T02:49:04.140Z,15.14
2022-09-23T02:51:38.160Z,15.23
2022-09-23T02:54:07.512Z,15.13
2022-09-23T02:56:35.438Z,14.83
2022-09-23T02:59:02.312Z,14.99
2022-09-23T03:02:06.462Z,14.92
2022-09-23T03:05:24.033Z,14.91
2022-09-23T03:08:26.067Z,14.71
2022-09-23T03:11:05.781Z,14.91
2022-09-23T03:14:07.471Z,14.83
2022-09-23T03:16:47.975Z,14.73
2022-09-23T03:19:33.882Z,14.61
2022-09-23T03:22:01.103Z,14.63
2022-09-23T03:24:34.096Z,14.66
2022-09-23T03:27:13.849Z,14.51
2022-09-23T03:29:47.801Z,14.59
2022-09-23T03:32:20.818Z,14.61
2022-09-23T03:34:51.460Z,14.47
2022-09-23T03:37:55.398Z,14.18
2022-09-23T03:40:32.567Z,14.64
2022-09-23T03:43:01.401Z,14.18
2022-09-23T03:45:32.426Z,14.57
2022-09-23T03:47:59.021Z,14.35
2022-09-23T03:50:25.753Z,14.50
2022-09-23T03:52:52.339Z,14.07
2022-09-23T03:55:19.650Z,14.32
2022-09-23T03:57:46.420Z,14.46
2022-09-23T04:00:14.694Z,14.34
2022-09-23T04:02:41.835Z,14.36
2022-09-23T04:05:09.669Z,14.33
2022-09-23T04:07:36.161Z,14.38
2022-09-23T04:10:03.349Z,14.32
2022-09-23T04:12:29.885Z,14.42
2022-09-23T04:14:56.425Z,13.41
2022-09-23T04:17:22.959Z,14.66
2022-09-23T04:19:49.471Z,14.46
2022-09-23T04:22:16.041Z,14.19
2022-09-23T04:24:42.660Z,14.02
2022-09-23T04:27:09.215Z,14.20
2022-09-23T04:29:35.854Z,13.98
2022-09-23T04:32:02.715Z,13.96
2022-09-23T04:34:29.308Z,14.12
2022-09-23T04:36:55.820Z,13.84
2022-09-23T04:39:25.344Z,13.93
2022-09-23T04:41:51.935Z,14.17
2022-09-23T04:44:18.862Z,14.31
2022-09-23T04:46:51.246Z,14.30
2022-09-23T04:49:18.287Z,14.14
2022-09-23T04:51:45.011Z,14.13
2022-09-23T04:54:14.322Z,13.63
2022-09-23T04:56:41.287Z,13.40
2022-09-23T04:59:07.974Z,14.02
2022-09-23T05:01:35.232Z,13.97
2022-09-23T05:04:06.909Z,13.98
2022-09-23T05:06:35.037Z,13.58
2022-09-23T05:09:04.045Z,13.90
2022-09-23T05:11:31.804Z,13.82
2022-09-23T05:13:58.700Z,13.58
2022-09-23T05:16:26.817Z,13.51
2022-09-23T05:18:54.555Z,13.89
2022-09-23T05:21:23.448Z,13.85
2022-09-23T05:23:54.264Z,13.60
2022-09-23T05:26:22.328Z,13.98
2022-09-23T05:28:48.990Z,13.98
2022-09-23T05:31:20.592Z,14.02
2022-09-23T05:33:54.439Z,14.05
2022-09-23T05:36:22.238Z,14.04
2022-09-23T05:38:50.245Z,14.15
2022-09-23T05:41:18.131Z,14.10
2022-09-23T05:43:45.519Z,14.32
2022-09-23T05:46:18.321Z,14.37
2022-09-23T05:48:48.047Z,14.33
2022-09-23T05:51:28.854Z,14.36
2022-09-23T05:53:58.401Z,14.09
2022-09-23T05:56:28.002Z,14.48
2022-09-23T05:58:56.805Z,14.46
2022-09-23T06:01:25.738Z,14.49
2022-09-23T06:03:54.166Z,14.70
2022-09-23T06:06:27.573Z,14.61
2022-09-23T06:08:54.118Z,14.59
2022-09-23T06:11:21.633Z,14.86
2022-09-23T06:13:49.425Z,14.86
2022-09-23T06:16:16.508Z,14.67
2022-09-23T06:18:44.698Z,14.66
2022-09-23T06:21:16.904Z,14.98
2022-09-23T06:23:45.204Z,14.95
2022-09-23T06:26:14.192Z,15.09
2022-09-23T06:28:43.337Z,15.04
2022-09-23T06:31:17.400Z,15.19
2022-09-23T06:33:45.473Z,15.30
2022-09-23T06:36:19.294Z,15.36
2022-09-23T06:38:57.428Z,15.47
2022-09-23T06:41:23.927Z,15.35
2022-09-23T06:43:51.549Z,15.24
2022-09-23T06:46:18.960Z,15.74
2022-09-23T06:48:46.423Z,15.72
2022-09-23T06:51:19.230Z,15.70
2022-09-23T06:53:49.390Z,15.60
2022-09-23T06:56:17.807Z,16.02
2022-09-23T06:58:44.502Z,16.16
2022-09-23T07:01:15.997Z,15.64
2022-09-23T07:03:43.920Z,16.08
2022-09-23T07:06:10.926Z,16.25
2022-09-23T07:08:37.749Z,15.85
2022-09-23T07:11:06.959Z,16.37
2022-09-23T07:13:35.491Z,16.62
2022-09-23T07:16:02.978Z,15.96
2022-09-23T07:18:36.714Z,16.09
2022-09-23T07:21:08.471Z,16.75
2022-09-23T07:23:35.195Z,16.83
2022-09-23T07:26:01.924Z,16.74
2022-09-23T07:28:29.142Z,16.95
2022-09-23T07:31:00.434Z,16.76
2022-09-23T07:33:32.440Z,16.95
2022-09-23T07:36:04.254Z,17.08
2022-09-23T07:38:31.558Z,16.78
2022-09-23T07:41:03.074Z,17.12
2022-09-23T07:43:31.944Z,17.02
2022-09-23T07:46:07.096Z,16.49
2022-09-23T07:48:34.850Z,17.19
2022-09-23T07:51:10.879Z,17.40
2022-09-23T07:53:38.082Z,17.55
2022-09-23T07:56:08.513Z,17.54
2022-09-23T07:58:35.628Z,16.88
2022-09-23T08:01:07.838Z,17.32
2022-09-23T08:03:35.260Z,17.63
2022-09-23T08:06:12.074Z,17.68
2022-09-23T08:08:40.726Z,17.72
2022-09-23T08:11:10.245Z,17.78
2022-09-23T08:13:37.407Z,17.90
2022-09-23T08:16:04.578Z,17.73
2022-09-23T08:18:31.259Z,17.89
2022-09-23T08:20:57.941Z,17.97
2022-09-23T08:23:24.583Z,18.03
2022-09-23T08:26:00.916Z,17.42
2022-09-23T08:28:28.560Z,17.84
2022-09-23T08:30:55.792Z,18.09
2022-09-23T08:33:23.735Z,18.27
2022-09-23T08:35:50.934Z,18.08
2022-09-23T08:38:18.498Z,18.18
2022-09-23T08:40:48.912Z,18.20
2022-09-23T08:43:28.220Z,17.79
2022-09-23T08:45:57.513Z,18.56
2022-09-23T08:48:30.678Z,18.48
2022-09-23T08:51:06.518Z,18.73
2022-09-23T08:53:38.465Z,18.42
2022-09-23T08:56:11.960Z,18.70
2022-09-23T08:59:07.889Z,18.78
2022-09-23T09:01:56.885Z,18.84
2022-09-23T09:04:33.075Z,18.99
2022-09-23T09:10:06.233Z,19.37
2022-09-23T09:13:07.611Z,19.58
2022-09-23T09:15:46.025Z,19.78
2022-09-23T09:18:22.054Z,19.64
2022-09-23T09:21:09.216Z,20.04
2022-09-23T09:23:50.060Z,20.23
2022-09-23T09:26:24.335Z,20.25
2022-09-23T09:29:30.883Z,20.48
2022-09-23T09:31:57.656Z,20.47
2022-09-23T09:34:24.186Z,20.88
2022-09-23T09:37:06.750Z,21.16
2022-09-23T09:39:35.681Z,21.03
2022-09-23T09:42:04.331Z,21.12
2022-09-23T09:44:37.152Z,21.53
2022-09-23T09:47:03.890Z,21.62
2022-09-23T09:49:48.597Z,21.70
2022-09-23T09:52:26.106Z,21.95
2022-09-23T09:54:55.570Z,22.15
2022-09-23T09:57:37.300Z,22.29
2022-09-23T10:00:23.079Z,22.38
2022-09-23T10:03:05.086Z,21.90
2022-09-23T10:05:47.079Z,22.44
2022-09-23T10:08:35.278Z,22.82
2022-09-23T10:11:19.056Z,22.98
2022-09-23T10:14:27.024Z,23.01
2022-09-23T10:17:05.357Z,23.25
2022-09-23T10:19:34.840Z,23.28
2022-09-23T10:22:16.807Z,23.51
2022-09-23T10:24:52.752Z,23.55
2022-09-23T10:27:34.605Z,23.74
2022-09-23T10:30:07.315Z,23.41
2022-09-23T10:32:44.199Z,24.03
2022-09-23T10:35:13.618Z,24.07
2022-09-23T10:37:49.046Z,24.01
2022-09-23T10:40:37.154Z,24.33
2022-09-23T10:43:46.984Z,24.42
2022-09-23T10:46:39.797Z,24.45
2022-09-23T10:49:25.274Z,24.39
2022-09-23T10:52:25.951Z,24.68
2022-09-23T10:55:04.597Z,24.97
2022-09-23T10:58:14.183Z,25.12
2022-09-23T11:00:59.201Z,25.48
2022-09-23T11:03:38.501Z,25.65
2022-09-23T11:06:14.339Z,25.73
2022-09-23T11:08:58.742Z,25.89
2022-09-23T11:11:43.887Z,25.91
2022-09-23T11:14:19.449Z,25.94
2022-09-23T11:17:05.819Z,26.07
2022-09-23T11:19:56.002Z,25.84
2022-09-23T11:22:37.983Z,26.31
2022-09-23T11:25:07.519Z,26.17
2022-09-23T11:28:11.711Z,26.55
2022-09-23T11:31:17.033Z,26.34
2022-09-23T11:33:49.688Z,25.90
2022-09-23T11:36:30.568Z,26.32
2022-09-23T11:39:04.323Z,25.92
2022-09-23T11:41:35.540Z,26.43
2022-09-23T11:44:18.126Z,26.62
2022-09-23T11:46:54.605Z,26.84
2022-09-23T11:49:58.448Z,26.97
2022-09-23T11:52:32.016Z,26.60
2022-09-23T11:55:22.319Z,26.53
2022-09-23T11:57:53.184Z,26.13
2022-09-23T12:00:34.216Z,26.04
2022-09-23T12:03:18.050Z,25.93
2022-09-23T12:06:12.704Z,25.51
2022-09-23T12:08:39.268Z,25.44
2022-09-23T12:11:25.541Z,25.16
2022-09-23T12:14:09.763Z,25.12
2022-09-23T12:16:43.092Z,24.92
2022-09-23T12:19:40.371Z,24.81
2022-09-23T12:22:24.149Z,24.64
2022-09-23T12:25:17.623Z,24.35
2022-09-23T12:27:48.103Z,24.67
2022-09-23T12:30:42.452Z,24.31
2022-09-23T12:33:21.544Z,24.07
2022-09-23T12:35:48.662Z,24.06
2022-09-23T12:38:25.304Z,24.14
2022-09-23T12:40:55.061Z,24.15
2022-09-23T12:43:34.500Z,23.72
2022-09-23T12:46:25.657Z,23.14
2022-09-23T12:48:57.404Z,23.72
2022-09-23T12:51:26.345Z,23.79
2022-09-23T12:53:56.183Z,23.51
2022-09-23T12:56:28.655Z,23.74
2022-09-23T12:59:17.405Z,23.75
2022-09-23T13:01:45.042Z,23.82
2022-09-23T13:04:54.376Z,23.74
2022-09-23T13:07:32.323Z,23.63
2022-09-23T13:10:18.805Z,23.69
2022-09-23T13:12:46.662Z,23.15
2022-09-23T13:15:29.926Z,22.95
2022-09-23T13:18:15.427Z,23.67
2022-09-23T13:20:42.118Z,23.29
2022-09-23T13:23:14.807Z,23.59
2022-09-23T13:25:43.364Z,23.52
2022-09-23T13:28:30.195Z,23.16
2022-09-23T13:30:58.548Z,23.34
2022-09-23T13:33:40.491Z,23.50
2022-09-23T13:36:15.718Z,23.39
2022-09-23T13:38:42.926Z,23.39
2022-09-23T13:41:28.867Z,23.46
2022-09-23T13:44:00.540Z,23.39
2022-09-23T13:46:30.051Z,23.16
2022-09-23T13:48:56.893Z,23.20
2022-09-23T13:51:50.204Z,22.94
2022-09-23T13:54:29.072Z,23.38
2022-09-23T13:56:58.942Z,23.29
2022-09-23T13:59:28.378Z,23.39
2022-09-23T14:02:14.205Z,23.30
2022-09-23T14:04:41.073Z,23.20
2022-09-23T14:07:09.605Z,23.19
2022-09-23T14:09:37.736Z,23.29
2022-09-23T14:12:06.652Z,23.23
2022-09-23T14:14:35.040Z,23.02
2022-09-23T14:17:02.726Z,23.18
2022-09-23T14:19:29.399Z,23.06
2022-09-23T14:21:56.445Z,23.09
2022-09-23T14:24:30.414Z,23.17
2022-09-23T14:27:10.931Z,23.16
2022-09-23T14:29:39.709Z,23.21
2022-09-23T14:32:11.017Z,23.20
2022-09-23T14:35:06.716Z,23.28
2022-09-23T14:37:55.086Z,22.90
2022-09-23T14:40:30.201Z,23.32
2022-09-23T14:43:23.923Z,23.19
2022-09-23T14:45:54.800Z,23.28
2022-09-23T14:48:25.704Z,22.22
2022-09-23T14:50:58.115Z,23.09
2022-09-23T14:53:46.394Z,22.95
2022-09-23T14:56:16.024Z,22.70
2022-09-23T14:58:51.719Z,23.23
2022-09-23T15:01:39.440Z,23.03
2022-09-23T15:04:11.725Z,23.24
2022-09-23T15:06:40.399Z,23.14
2022-09-23T15:09:07.664Z,23.04
2022-09-23T15:11:36.124Z,23.03
2022-09-23T15:14:33.147Z,22.90
2022-09-23T15:16:50.770Z,22.81
2022-09-23T15:19:20.938Z,22.83
2022-09-23T15:21:52.656Z,23.10
2022-09-23T15:24:43.382Z,23.21
2022-09-23T15:27:21.139Z,23.02
2022-09-23T15:29:48.611Z,22.99
2022-09-23T15:32:15.285Z,22.87
2022-09-23T15:34:42.175Z,22.74
2022-09-23T15:37:12.511Z,23.12
2022-09-23T15:39:39.186Z,22.97
2022-09-23T15:42:07.180Z,22.92
2022-09-23T15:44:35.351Z,22.93
2022-09-23T15:47:02.452Z,23.15
2022-09-23T15:49:42.025Z,23.03
2022-09-23T15:52:10.582Z,23.01
2022-09-23T15:54:37.890Z,22.99
2022-09-23T15:57:05.771Z,23.04
2022-09-23T15:59:33.003Z,22.52
2022-09-23T16:02:05.749Z,22.66
2022-09-23T16:04:32.401Z,22.66
2022-09-23T16:06:59.120Z,22.76
2022-09-23T16:09:28.226Z,22.69
2022-09-23T16:11:55.149Z,22.69
2022-09-23T16:14:21.771Z,22.55
2022-09-23T16:16:48.396Z,22.45
2022-09-23T16:19:16.285Z,22.14
2022-09-23T16:21:43.251Z,22.62
2022-09-23T16:24:17.366Z,22.56
2022-09-23T16:26:47.068Z,22.59
2022-09-23T16:29:15.007Z,22.28
2022-09-23T16:31:43.250Z,22.48
2022-09-23T16:34:09.837Z,22.50
2022-09-23T16:36:40.612Z,22.38
2022-09-23T16:39:10.498Z,22.38
2022-09-23T16:41:37.193Z,22.36
2022-09-23T16:44:06.217Z,22.35
2022-09-23T16:46:33.785Z,22.34
2022-09-23T16:49:00.890Z,22.19
2022-09-23T16:51:29.928Z,22.22
2022-09-23T16:53:58.441Z,22.25
2022-09-23T16:56:29.240Z,22.14
2022-09-23T16:59:03.822Z,22.20
2022-09-23T17:01:50.837Z,21.47
2022-09-23T17:04:19.401Z,22.04
2022-09-23T17:06:50.671Z,21.89
2022-09-23T17:09:20.026Z,21.94
2022-09-23T17:11:52.988Z,21.74
2022-09-23T17:14:19.587Z,21.63
2022-09-23T17:16:46.068Z,21.63
2022-09-23T17:19:13.920Z,21.65
2022-09-23T17:21:40.499Z,21.30
2022-09-23T17:24:07.504Z,21.26
2022-09-23T17:26:34.629Z,21.04
2022-09-23T17:29:02.080Z,21.53
2022-09-23T17:31:29.077Z,21.35
2022-09-23T17:33:57.344Z,21.22
2022-09-23T17:36:24.552Z,20.86
2022-09-23T17:38:54.507Z,21.02
2022-09-23T17:41:21.822Z,21.09
2022-09-23T17:43:53.822Z,20.98
2022-09-23T17:46:20.583Z,21.08
2022-09-23T17:48:47.113Z,20.42
2022-09-23T17:51:16.112Z,20.87
2022-09-23T17:53:45.526Z,20.78
2022-09-23T17:56:21.125Z,20.06
2022-09-23T17:58:49.523Z,20.76
2022-09-23T18:01:19.732Z,20.73
2022-09-23T18:03:47.378Z,20.59
2022-09-23T18:06:16.682Z,20.45
2022-09-23T18:08:45.670Z,20.71
2022-09-23T18:11:14.838Z,20.56
2022-09-23T18:13:41.810Z,20.32
2022-09-23T18:16:08.498Z,20.44
2022-09-23T18:18:34.994Z,20.42
2022-09-23T18:21:02.812Z,19.82
2022-09-23T18:23:29.764Z,20.35
2022-09-23T18:25:56.717Z,20.30
2022-09-23T18:28:23.267Z,20.13
2022-09-23T18:30:54.709Z,19.98
2022-09-23T18:33:22.975Z,20.25
2022-09-23T18:35:50.226Z,20.21
2022-09-23T18:38:16.757Z,20.19
2022-09-23T18:40:58.283Z,20.03
2022-09-23T18:43:32.714Z,19.98
2022-09-23T18:46:04.012Z,19.85
2022-09-23T18:48:51.180Z,19.49
2022-09-23T18:51:19.739Z,20.02
2022-09-23T18:53:47.961Z,20.27
2022-09-23T18:56:17.413Z,19.98
2022-09-23T18:58:48.367Z,19.53
2022-09-23T19:01:15.930Z,19.62
2022-09-23T19:03:42.912Z,19.83
2022-09-23T19:06:11.950Z,19.87
2022-09-23T19:08:40.051Z,19.83
2022-09-23T19:11:09.328Z,19.81
2022-09-23T19:13:36.116Z,19.70
2022-09-23T19:16:16.662Z,19.80
2022-09-23T19:18:46.541Z,19.50
2022-09-23T19:21:14.529Z,19.52
2022-09-23T19:23:48.973Z,19.55
2022-09-23T19:26:18.628Z,19.61
2022-09-23T19:28:50.079Z,19.56
2022-09-23T19:31:20.194Z,19.54
2022-09-23T19:34:01.214Z,19.10
2022-09-23T19:36:35.259Z,19.46
2022-09-23T19:39:22.498Z,19.30
2022-09-23T19:41:50.516Z,19.40
2022-09-23T19:44:17.913Z,19.40
2022-09-23T19:46:46.262Z,19.13
2022-09-23T19:49:13.756Z,19.32
2022-09-23T19:51:40.407Z,19.14
2022-09-23T19:54:08.133Z,19.22
2022-09-23T19:56:35.628Z,19.29
2022-09-23T19:59:05.827Z,18.47
2022-09-23T20:01:33.660Z,19.00
2022-09-23T20:04:00.963Z,19.12
2022-09-23T20:06:32.636Z,19.03
2022-09-23T20:08:59.567Z,19.10
2022-09-23T20:11:28.516Z,18.91
2022-09-23T20:14:01.843Z,19.02
2022-09-23T20:16:32.339Z,18.95
2022-09-23T20:19:00.377Z,18.91
2022-09-23T20:21:28.457Z,18.91
2022-09-23T20:23:55.383Z,18.42
2022-09-23T20:26:40.594Z,18.68
2022-09-23T20:29:09.020Z,18.74
2022-09-23T20:31:35.877Z,18.75
2022-09-23T20:34:05.610Z,18.55
2022-09-23T20:36:34.099Z,18.28
2022-09-23T20:39:02.668Z,18.57
2022-09-23T20:41:31.253Z,18.40
2022-09-23T20:44:01.339Z,18.54
2022-09-23T20:46:28.942Z,18.23
2022-09-23T20:48:56.780Z,18.54
2022-09-23T20:51:24.705Z,18.57
2022-09-23T20:53:52.977Z,18.60
2022-09-23T20:56:21.088Z,18.53
2022-09-23T20:58:48.661Z,18.39
2022-09-23T21:01:16.085Z,18.41
2022-09-23T21:03:45.099Z,18.10
2022-09-23T21:06:14.512Z,18.27
2022-09-23T21:08:42.107Z,18.26
2022-09-23T21:11:11.848Z,17.48
2022-09-23T21:13:38.846Z,18.21
2022-09-23T21:16:08.316Z,18.14
2022-09-23T21:18:35.280Z,18.05
2022-09-23T21:21:02.063Z,17.56
2022-09-23T21:23:33.960Z,18.05
2022-09-23T21:26:06.724Z,18.28
2022-09-23T21:28:37.960Z,18.33
2022-09-23T21:31:11.036Z,18.14
2022-09-23T21:33:38.883Z,17.98
2022-09-23T21:36:07.396Z,18.16
2022-09-23T21:38:35.904Z,17.98
2022-09-23T21:41:08.015Z,18.03
2022-09-23T21:43:38.408Z,18.04
2022-09-23T21:46:07.162Z,18.11
2022-09-23T21:48:36.036Z,17.96
2022-09-23T21:51:08.317Z,18.21
2022-09-23T21:53:40.237Z,18.07
2022-09-23T21:56:14.023Z,18.05
2022-09-23T21:58:43.865Z,18.04
2022-09-23T22:01:16.139Z,17.85
2022-09-23T22:03:44.012Z,17.60
2022-09-23T22:06:21.595Z,17.79
2022-09-23T22:08:59.849Z,17.73
2022-09-23T22:11:50.743Z,17.43
2022-09-23T22:14:19.629Z,17.66
2022-09-23T22:16:46.938Z,17.66
2022-09-23T22:19:15.062Z,17.43
2022-09-23T22:21:43.971Z,17.62
2022-09-23T22:24:11.743Z,17.63
2022-09-23T22:26:41.239Z,17.64
2022-09-23T22:29:28.085Z,17.51
2022-09-23T22:32:13.743Z,17.59
2022-09-23T22:34:53.245Z,17.59
2022-09-23T22:37:25.582Z,17.67
2022-09-23T22:39:52.432Z,17.59
2022-09-23T22:42:21.269Z,17.51
2022-09-23T22:44:48.764Z,17.57
2022-09-23T22:47:18.056Z,17.56
2022-09-23T22:49:46.024Z,17.54
2022-09-23T22:52:12.734Z,17.25
2022-09-23T22:54:39.769Z,17.19
2022-09-23T22:57:08.025Z,17.46
2022-09-23T22:59:35.783Z,17.60
2022-09-23T23:02:03.123Z,17.16
2022-09-23T23:04:30.515Z,17.41
2022-09-23T23:07:03.145Z,17.43
2022-09-23T23:09:29.613Z,17.04
2022-09-23T23:11:59.378Z,17.34
2022-09-23T23:14:27.942Z,17.35
2022-09-23T23:16:55.117Z,17.34
2022-09-23T23:19:21.771Z,17.32
2022-09-23T23:21:50.373Z,17.32
2022-09-23T23:24:17.990Z,16.99
2022-09-23T23:26:45.620Z,17.34
2022-09-23T23:29:13.628Z,17.14
2022-09-23T23:31:40.690Z,17.25
2022-09-23T23:34:11.869Z,17.15
2022-09-23T23:36:39.464Z,16.39
2022-09-23T23:39:07.431Z,16.96
2022-09-23T23:41:34.175Z,17.00
2022-09-23T23:44:01.293Z,17.03
2022-09-23T23:46:30.163Z,17.05
2022-09-23T23:48:57.610Z,17.03
2022-09-23T23:51:27.878Z,16.59
2022-09-23T23:53:54.999Z,17.00
2022-09-23T23:56:24.004Z,16.89
2022-09-23T23:58:58.691Z,16.80
